createdAt,value
2022-12-23T00:02:20.172Z,99834.00
2022-12-23T00:07:24.458Z,99829.16
2022-12-23T00:12:44.607Z,99823.06
2022-12-23T00:17:47.388Z,99824.16
2022-12-23T00:23:06.822Z,99815.38
2022-12-23T00:28:11.656Z,99819.88
2022-12-23T00:33:15.563Z,99827.16
2022-12-23T00:38:41.259Z,99829.84
2022-12-23T00:43:44.022Z,99833.22
2022-12-23T00:49:12.569Z,99837.44
2022-12-23T00:54:17.588Z,99844.41
2022-12-23T00:59:20.934Z,99840.13
2022-12-23T01:04:41.046Z,99830.84
2022-12-23T01:09:45.383Z,99825.78
2022-12-23T01:14:48.143Z,99823.00
2022-12-23T01:19:51.384Z,99822.56
2022-12-23T01:24:55.495Z,99826.50
2022-12-23T01:29:58.257Z,99831.94
2022-12-23T01:35:00.978Z,99830.22
2022-12-23T01:40:05.944Z,99827.66
2022-12-23T01:45:15.522Z,99827.34
2022-12-23T01:50:23.582Z,99831.38
2022-12-23T01:55:31.530Z,99839.56
2022-12-23T02:00:51.864Z,99840.13
2022-12-23T02:06:14.988Z,99838.69
2022-12-23T02:11:32.919Z,99840.97
2022-12-23T02:16:43.472Z,99846.53
2022-12-23T02:22:18.158Z,99837.91
2022-12-23T02:27:28.966Z,99821.88
2022-12-23T02:32:44.531Z,99834.31
2022-12-23T02:37:54.634Z,99840.34
2022-12-23T02:43:03.049Z,99852.31
2022-12-23T02:48:09.956Z,99852.75
2022-12-23T02:53:18.649Z,99861.91
2022-12-23T02:58:25.900Z,99871.53
2022-12-23T03:03:30.491Z,99864.91
2022-12-23T03:08:45.066Z,99870.28
2022-12-23T03:14:09.159Z,99874.41
2022-12-23T03:19:22.722Z,99883.47
2022-12-23T03:24:33.677Z,99879.25
2022-12-23T03:29:42.643Z,99881.03
2022-12-23T03:34:51.062Z,99899.56
2022-12-23T03:39:56.221Z,99899.56
2022-12-23T03:50:28.717Z,99891.75
2022-12-23T03:55:35.522Z,99893.31
2022-12-23T04:00:46.163Z,99889.44
2022-12-23T04:05:54.536Z,99904.16
2022-12-23T04:10:58.022Z,99904.38
2022-12-23T04:16:01.447Z,99913.09
2022-12-23T04:21:06.090Z,99911.41
2022-12-23T04:26:08.844Z,99909.97
2022-12-23T04:31:11.727Z,99912.97
2022-12-23T04:36:16.265Z,99926.38
2022-12-23T04:41:19.000Z,99925.13
2022-12-23T04:46:21.983Z,99920.91
2022-12-23T04:51:26.149Z,99911.66
2022-12-23T04:56:28.882Z,99921.03
2022-12-23T05:01:31.693Z,99913.22
2022-12-23T05:06:36.130Z,99931.41
2022-12-23T05:11:42.370Z,99950.47
2022-12-23T05:16:45.552Z,99953.47
2022-12-23T05:21:49.697Z,99952.00
2022-12-23T05:26:59.439Z,99956.44
2022-12-23T05:32:03.032Z,99961.47
2022-12-23T05:37:07.966Z,99960.34
2022-12-23T05:42:10.747Z,99985.13
2022-12-23T05:47:13.451Z,99976.19
2022-12-23T05:52:17.515Z,99987.78
2022-12-23T05:57:20.348Z,99991.78
2022-12-23T06:02:25.093Z,99989.50
2022-12-23T06:07:29.351Z,99991.81
2022-12-23T06:12:32.413Z,99994.16
2022-12-23T06:17:35.164Z,99989.22
2022-12-23T06:29:03.641Z,100008.91
2022-12-23T06:34:41.641Z,100004.00
2022-12-23T06:39:48.311Z,100012.84
2022-12-23T06:44:51.350Z,100006.59
2022-12-23T06:49:56.508Z,100016.63
2022-12-23T06:55:13.357Z,100021.47
2022-12-23T07:00:17.449Z,100009.78
2022-12-23T07:05:20.405Z,100012.97
2022-12-23T07:10:24.585Z,100029.53
2022-12-23T07:15:27.351Z,100053.63
2022-12-23T07:20:30.282Z,100066.47
2022-12-23T07:25:34.490Z,100052.50
2022-12-23T07:30:37.603Z,100045.03
2022-12-23T07:35:42.172Z,100053.88
2022-12-23T07:40:49.632Z,100081.69
2022-12-23T07:45:59.268Z,100084.53
2022-12-23T07:51:03.194Z,100089.44
2022-12-23T07:56:08.068Z,100090.13
2022-12-23T08:01:11.113Z,100088.16
2022-12-23T08:06:16.239Z,100079.00
2022-12-23T08:11:20.561Z,100082.03
2022-12-23T08:16:23.635Z,100079.38
2022-12-23T08:21:26.428Z,100079.44
2022-12-23T08:26:30.502Z,100088.38
2022-12-23T08:31:33.506Z,100100.34
2022-12-23T08:36:37.588Z,100111.59
2022-12-23T08:41:44.491Z,100100.34
2022-12-23T08:46:47.355Z,100111.59
2022-12-23T08:51:50.402Z,100107.34
2022-12-23T08:56:54.563Z,100126.16
2022-12-23T09:01:59.781Z,100142.66
2022-12-23T09:07:02.719Z,100147.31
2022-12-23T09:12:07.155Z,100143.38
2022-12-23T09:17:09.983Z,100159.47
2022-12-23T09:22:13.617Z,100140.09
2022-12-23T09:27:17.905Z,100139.69
2022-12-23T09:32:20.738Z,100147.63
2022-12-23T09:37:23.648Z,100154.34
2022-12-23T09:42:45.467Z,100146.78
2022-12-23T09:47:49.669Z,100156.28
2022-12-23T09:53:00.582Z,100147.66
2022-12-23T09:58:10.802Z,100146.25
2022-12-23T10:03:21.524Z,100142.91
2022-12-23T10:08:32.398Z,100135.59
2022-12-23T10:13:41.007Z,100134.69
2022-12-23T10:18:51.254Z,100137.88
2022-12-23T10:23:55.474Z,100140.72
2022-12-23T10:29:10.904Z,100146.09
2022-12-23T10:34:22.150Z,100145.94
2022-12-23T10:39:32.646Z,100151.09
2022-12-23T10:44:58.877Z,100130.41
2022-12-23T10:50:14.306Z,100134.91
2022-12-23T10:55:28.555Z,100130.19
2022-12-23T11:00:41.035Z,100128.31
2022-12-23T11:05:45.503Z,100126.06
2022-12-23T11:10:49.230Z,100147.41
2022-12-23T11:15:53.677Z,100141.59
2022-12-23T11:21:04.336Z,100141.38
2022-12-23T11:26:10.026Z,100150.22
2022-12-23T11:31:16.151Z,100145.59
2022-12-23T11:36:25.357Z,100144.06
2022-12-23T11:41:30.661Z,100140.47
2022-12-23T11:46:36.056Z,100130.53
2022-12-23T11:51:39.700Z,100125.50
2022-12-23T11:56:42.997Z,100128.44
2022-12-23T12:01:50.002Z,100125.59
2022-12-23T12:06:56.628Z,100115.38
2022-12-23T12:12:06.597Z,100115.84
2022-12-23T12:17:19.025Z,100098.63
2022-12-23T12:22:32.241Z,100080.38
2022-12-23T12:27:39.303Z,100078.09
2022-12-23T12:32:51.553Z,100071.31
2022-12-23T12:37:58.500Z,100059.28
2022-12-23T12:43:12.857Z,100066.13
2022-12-23T12:48:33.103Z,100059.06
2022-12-23T12:53:39.039Z,100067.13
2022-12-23T12:58:45.593Z,100074.56
2022-12-23T13:04:08.716Z,100064.50
2022-12-23T13:09:23.110Z,100066.00
2022-12-23T13:14:35.959Z,100077.09
2022-12-23T13:19:48.047Z,100079.53
2022-12-23T13:24:58.612Z,100067.94
2022-12-23T13:30:06.176Z,100060.28
2022-12-23T13:35:26.554Z,100053.16
2022-12-23T13:40:38.873Z,100050.06
2022-12-23T13:45:43.659Z,100058.38
2022-12-23T13:50:56.586Z,100065.56
2022-12-23T13:56:12.601Z,100065.13
2022-12-23T14:01:34.139Z,100068.09
2022-12-23T14:06:45.881Z,100059.50
2022-12-23T14:11:48.862Z,100055.31
2022-12-23T14:17:05.060Z,100037.19
2022-12-23T14:22:25.935Z,100028.34
2022-12-23T14:27:47.332Z,100021.53
2022-12-23T14:32:52.883Z,100012.72
2022-12-23T14:38:30.898Z,100023.19
2022-12-23T14:43:55.600Z,100020.91
2022-12-23T14:49:40.111Z,100028.31
2022-12-23T14:54:55.282Z,100033.06
2022-12-23T15:00:10.786Z,100036.44
2022-12-23T15:05:14.753Z,100031.91
2022-12-23T15:10:21.280Z,100034.50
2022-12-23T15:15:28.033Z,100031.50
2022-12-23T15:20:30.830Z,100031.75
2022-12-23T15:25:37.760Z,100034.47
2022-12-23T15:30:50.734Z,100032.09
2022-12-23T15:35:53.782Z,100025.28
2022-12-23T15:41:02.496Z,100032.69
2022-12-23T15:46:15.578Z,100028.22
2022-12-23T15:51:57.822Z,100018.81
2022-12-23T15:56:51.361Z,100011.75
2022-12-23T16:01:56.205Z,100010.09
2022-12-23T16:06:59.199Z,100011.00
2022-12-23T16:12:20.607Z,100012.47
2022-12-23T16:17:31.387Z,99995.63
2022-12-23T16:22:37.891Z,99992.13
2022-12-23T16:27:43.866Z,99991.13
2022-12-23T16:32:51.948Z,99974.13
2022-12-23T16:37:58.948Z,99974.63
2022-12-23T16:43:01.763Z,99967.47
2022-12-23T16:48:18.167Z,99950.25
2022-12-23T16:53:22.218Z,99950.13
2022-12-23T16:58:25.711Z,99948.13
2022-12-23T17:03:30.001Z,99937.50
2022-12-23T17:08:35.481Z,99944.41
2022-12-23T17:13:39.822Z,99936.06
2022-12-23T17:18:44.010Z,99937.28
2022-12-23T17:23:47.037Z,99938.75
2022-12-23T17:28:51.662Z,99943.53
2022-12-23T17:33:56.872Z,99942.19
2022-12-23T17:38:59.779Z,99948.50
2022-12-23T17:44:02.900Z,99943.03
2022-12-23T17:49:07.051Z,99950.66
2022-12-23T17:54:21.463Z,99953.16
2022-12-23T17:59:24.716Z,99951.94
2022-12-23T18:04:29.031Z,99955.91
2022-12-23T18:09:33.167Z,99949.56
2022-12-23T18:14:36.027Z,99958.88
2022-12-23T18:19:40.269Z,99962.44
2022-12-23T18:24:43.560Z,99954.09
2022-12-23T18:29:46.970Z,99962.09
2022-12-23T18:34:51.688Z,99963.22
2022-12-23T18:39:54.541Z,99954.09
2022-12-23T18:44:57.306Z,99955.31
2022-12-23T18:50:01.510Z,99961.09
2022-12-23T18:55:06.598Z,99959.53
2022-12-23T19:00:15.038Z,99956.97
2022-12-23T19:05:20.805Z,99953.59
2022-12-23T19:10:26.382Z,99951.81
2022-12-23T19:15:29.442Z,99949.38
2022-12-23T19:20:33.699Z,99951.38
2022-12-23T19:25:36.935Z,99957.22
2022-12-23T19:30:42.576Z,99953.41
2022-12-23T19:35:46.848Z,99952.38
2022-12-23T19:40:57.627Z,99958.00
2022-12-23T19:46:01.917Z,99963.91
2022-12-23T19:51:08.388Z,99965.47
2022-12-23T19:56:13.198Z,99959.56
2022-12-23T20:01:18.319Z,99963.00
2022-12-23T20:06:25.358Z,99964.03
2022-12-23T20:11:42.336Z,99965.91
2022-12-23T20:16:49.342Z,99969.16
2022-12-23T20:21:53.799Z,99973.84
2022-12-23T20:26:56.733Z,99970.50
2022-12-23T20:31:59.475Z,99966.91
2022-12-23T20:37:04.601Z,99980.34
2022-12-23T20:42:07.561Z,99973.97
2022-12-23T20:47:10.750Z,99971.28
2022-12-23T20:52:15.090Z,99972.50
2022-12-23T20:57:17.904Z,99972.19
2022-12-23T21:02:21.392Z,99971.06
2022-12-23T21:07:26.585Z,99976.63
2022-12-23T21:12:29.491Z,99967.38
2022-12-23T21:17:33.719Z,99973.97
2022-12-23T21:22:37.988Z,99979.22
2022-12-23T21:27:42.465Z,99983.34
2022-12-23T21:32:45.256Z,99983.78
2022-12-23T21:37:49.407Z,99981.78
2022-12-23T21:42:52.287Z,99982.78
2022-12-23T21:47:55.571Z,99986.22
2022-12-23T21:52:59.722Z,99995.84
2022-12-23T21:58:02.562Z,99984.91
2022-12-23T22:03:05.436Z,99998.28
2022-12-23T22:08:09.782Z,100002.41
2022-12-23T22:13:15.874Z,99998.41
2022-12-23T22:18:18.965Z,99994.06
2022-12-23T22:23:23.196Z,100008.94
2022-12-23T22:28:26.533Z,100000.63
2022-12-23T22:33:32.795Z,100003.34
2022-12-23T22:38:36.893Z,100010.34
2022-12-23T22:43:39.731Z,100013.47
2022-12-23T22:48:42.479Z,100018.38
2022-12-23T22:53:47.437Z,100015.72
2022-12-23T22:58:50.858Z,100005.75
2022-12-23T23:03:57.191Z,100007.66
2022-12-23T23:09:02.202Z,100015.81
2022-12-23T23:14:05.222Z,100023.38
2022-12-23T23:19:09.238Z,100022.88
2022-12-23T23:24:13.560Z,100021.28
2022-12-23T23:29:16.519Z,100029.34
2022-12-23T23:34:19.359Z,100024.53
2022-12-23T23:39:23.555Z,100016.03
2022-12-23T23:44:26.342Z,100014.47
2022-12-23T23:49:29.239Z,100010.22
2022-12-23T23:54:33.439Z,100022.03
2022-12-23T23:59:36.218Z,100028.66
